Latest Weather Observations for Truscott

IDD60801

Issued at 5:05 pm CST Wednesday 23 July 2014 (issued every 30 minutes, with the page automatically refreshed every 10 minutes)

About weather observations | Map of weather stations | Latest weather observations for NT | Other Formats
Station Details ID: 001020 Name: TRUSCOTT Lat: -14.09 Lon: 126.39 Height: 51.0 m
Data from the previous 72 hours. | See also: Recent months at Truscott
Date/Time
CST
Temp
°C
App
Temp
°C
Dew
Point
Rel
Hum
%
Delta-T
°C
Wind Press
QNH
hPa
Press
MSL
hPa
Rain
since 9 am
mm
Dir
 
Spd
km/h
Gust
km/h
Spd
kts
Gust
kts
23/05:00pm 26.9 24.6 11.8 39 8.7 NNW 15 20 8 11 1012.0 - 0.0
23/04:30pm 27.8 24.6 8.6 30 10.5 N 15 20 8 11 1011.8 1011.4 0.0
23/04:00pm 27.5 24.7 11.5 37 9.2 N 17 24 9 13 1011.8 - 0.0
23/03:30pm 27.7 25.5 12.1 38 9.0 N 15 20 8 11 1011.9 - 0.0
23/03:00pm 27.7 26.1 12.9 40 8.7 N 13 20 7 11 1012.1 - 0.0
23/02:30pm 28.0 26.0 12.8 39 8.9 N 15 20 8 11 1012.5 - 0.0
23/02:00pm 28.3 26.9 13.4 40 8.8 NNW 13 19 7 10 1012.6 - 0.0
23/01:30pm 28.3 26.9 13.4 40 8.8 N 13 17 7 9 1013.1 1012.7 0.0
23/01:00pm 28.6 26.5 9.8 31 10.5 NNW 11 17 6 9 1013.5 - 0.0
23/12:30pm 27.8 26.7 11.8 37 9.2 NNW 9 15 5 8 1014.1 - 0.0
23/12:00pm 28.3 28.4 13.8 41 8.7 NE 6 13 3 7 1014.5 - 0.0
23/11:30am 27.0 25.9 10.7 36 9.2 NW 7 13 4 7 1015.0 - 0.0
23/11:00am 27.3 27.0 11.3 37 9.1 W 4 11 2 6 1015.2 - 0.0
23/10:30am 25.8 25.5 12.6 44 7.6 S 6 11 3 6 1015.5 1015.2 0.0
23/10:00am 24.5 24.2 13.4 50 6.5 SSW 7 9 4 5 1015.7 - 0.0
23/09:30am 23.3 22.9 14.0 56 5.5 SSW 9 13 5 7 1015.6 - 0.0
23/09:00am 21.5 22.2 16.0 71 3.3 SSW 7 11 4 6 1015.2 - 0.0
23/08:30am 20.3 20.9 16.7 80 2.2 SW 9 13 5 7 1014.9 - 0.0
23/08:00am 19.5 19.7 16.7 84 1.7 SSW 11 13 6 7 1014.7 - 0.0
23/07:30am 19.0 19.8 17.3 90 1.0 SSW 9 13 5 7 1014.6 1014.2 0.0
23/07:00am 19.1 19.9 17.4 90 1.0 SSW 9 13 5 7 1014.4 - 0.0
23/06:30am 19.2 19.1 17.0 87 1.3 SSW 13 17 7 9 1014.2 - 0.0
23/06:00am 18.9 19.6 17.0 89 1.2 SSW 9 13 5 7 1014.1 - 0.0
23/05:30am 18.8 19.5 17.1 90 1.0 SW 9 13 5 7 1014.1 - 0.0
23/05:00am 18.9 19.4 17.4 91 0.9 SW 11 13 6 7 1014.0 - 0.0
23/04:30am 19.2 19.8 17.7 91 0.9 SW 11 13 6 7 1014.0 1013.6 0.0
23/04:00am 19.4 21.0 18.2 93 0.7 SSW 7 11 4 6 1014.1 - 0.0
23/03:30am 19.6 21.1 18.8 95 0.5 SSW 9 11 5 6 1014.1 - 0.0
23/03:00am 19.4 21.6 19.1 98 0.2 SSW 6 7 3 4 1014.1 - 0.0
23/02:30am 19.0 21.2 18.3 96 0.4 SSW 4 7 2 4 1014.2 - 0.0
23/02:00am 19.5 21.6 19.3 99 0.1 SSW 7 9 4 5 1014.5 - 0.0
23/01:30am 18.6 21.5 18.1 97 0.3 E 0 0 0 0 1014.6 1014.2 0.0
23/01:00am 18.7 21.5 18.0 96 0.4 CALM 0 0 0 0 1014.8 - 0.0
23/12:30am 18.8 21.5 17.8 94 0.6 CALM 0 0 0 0 1014.9 - 0.0
23/12:00am 19.4 22.4 18.4 94 0.6 CALM 0 0 0 0 1015.1 - 0.0
 
Date/Time
CST
Temp
°C
App
Temp
°C
Dew
Point
Rel
Hum
%
Delta-T
°C
Wind Press
QNH
hPa
Press
MSL
hPa
Rain
since 9 am
mm
Dir
 
Spd
km/h
Gust
km/h
Spd
kts
Gust
kts
22/11:30pm 19.7 22.7 18.5 93 0.7 CALM 0 0 0 0 1015.1 - 0.0
22/11:00pm 20.1 23.5 19.3 95 0.5 CALM 0 4 0 2 1015.1 - 0.0
22/10:30pm 20.4 22.7 18.5 89 1.2 E 4 7 2 4 1015.0 1014.7 0.0
22/10:00pm 21.1 23.1 19.2 89 1.2 ENE 7 11 4 6 1014.8 - 0.0
22/09:30pm 20.9 22.7 18.7 87 1.4 ENE 7 9 4 5 1014.6 - 0.0
22/09:00pm 21.0 22.9 18.6 86 1.5 ENE 6 9 3 5 1014.4 - 0.0
22/08:30pm 21.5 23.6 18.9 85 1.6 NE 6 7 3 4 1014.1 - 0.0
22/08:00pm 22.8 25.0 19.6 82 2.1 NNE 7 9 4 5 1013.7 - 0.0
22/07:30pm 23.2 25.1 19.8 81 2.2 N 9 11 5 6 1013.2 1012.8 0.0
22/07:00pm 23.8 25.5 19.3 76 2.9 N 9 13 5 7 1013.0 - 0.0
22/06:30pm 24.6 25.5 18.5 69 3.9 N 11 15 6 8 1012.7 - 0.0
22/06:00pm 25.9 26.5 17.8 61 5.1 N 11 15 6 8 1012.5 - 0.0
22/05:30pm 28.4 26.1 10.6 33 10.1 NE 13 20 7 11 1012.3 - 0.0
22/05:00pm 28.7 25.1 8.4 28 11.1 NE 17 24 9 13 1012.0 - 0.0
22/04:30pm 28.6 27.3 13.7 40 8.9 NE 13 24 7 13 1012.1 1011.7 0.0
22/04:00pm 28.2 26.5 14.8 44 8.1 NNE 17 24 9 13 1012.2 - 0.0
22/03:30pm 28.8 27.8 14.6 42 8.6 NE 13 22 7 12 1012.4 - 0.0
22/03:00pm 29.0 26.6 12.8 36 9.6 N 17 26 9 14 1012.6 - 0.0
22/02:30pm 29.7 26.2 8.7 27 11.6 NE 17 26 9 14 1012.9 - 0.0
22/02:00pm 29.6 26.2 7.5 25 12.0 E 15 24 8 13 1013.3 - 0.0
22/01:30pm 29.3 26.2 7.2 25 11.9 E 13 28 7 15 1013.9 1013.5 0.0
22/01:00pm 28.5 25.0 7.1 26 11.5 E 15 20 8 11 1014.3 - 0.0
22/12:30pm 27.9 24.0 7.2 27 11.1 E 17 26 9 14 1014.8 - 0.0
22/12:00pm 27.2 23.1 6.0 26 11.1 E 17 26 9 14 1015.4 - 0.0
22/11:30am 26.7 22.1 5.6 26 10.9 E 19 30 10 16 1015.6 - 0.0
22/11:00am 26.4 22.7 6.4 28 10.5 E 15 22 8 12 1015.9 - 0.0
22/10:30am 25.6 22.0 6.7 30 9.9 E 15 26 8 14 1015.9 1015.6 0.0
22/10:00am 24.2 21.7 8.2 36 8.5 ESE 11 17 6 9 1016.1 - 0.0
22/09:30am 22.9 20.7 9.3 42 7.3 ESE 11 15 6 8 1015.9 - 0.0
22/09:00am 21.8 19.7 9.7 46 6.5 ESE 11 15 6 8 1015.8 - 0.0
22/08:30am 20.8 18.3 8.4 45 6.5 ESE 11 17 6 9 1015.7 - 0.0
22/08:00am 17.4 15.6 9.3 59 4.2 E 9 11 5 6 1015.5 - 0.0
22/07:30am 15.5 14.2 9.2 66 3.2 SE 6 9 3 5 1015.1 1014.8 0.0
22/07:00am 15.7 14.3 8.7 63 3.6 SSW 6 7 3 4 1015.0 - 0.0
22/06:30am 16.0 14.8 9.4 65 3.4 SSW 6 7 3 4 1014.8 - 0.0
22/06:00am 15.7 14.4 9.1 65 3.4 WSW 6 7 3 4 1014.6 - 0.0
22/05:30am 15.7 15.1 9.1 65 3.4 SW 2 7 1 4 1014.8 - 0.0
22/05:00am 15.1 14.4 9.9 71 2.7 WSW 4 7 2 4 1014.7 - 0.0
22/04:30am 16.6 16.1 9.5 63 3.7 SW 2 7 1 4 1014.5 1014.1 0.0
22/04:00am 16.7 15.7 10.3 66 3.4 SW 6 7 3 4 1014.6 - 0.0
22/03:30am 17.4 17.3 9.6 60 4.1 CALM 0 0 0 0 1014.8 - 0.0
22/03:00am 18.4 17.4 10.3 59 4.3 SSE 6 7 3 4 1015.1 - 0.0
22/02:30am 19.2 18.0 10.2 56 4.8 SSE 7 11 4 6 1015.2 - 0.0
22/02:00am 19.0 17.3 10.0 56 4.8 SE 9 11 5 6 1015.1 - 0.0
22/01:30am 19.5 17.9 10.2 55 5.0 SE 9 11 5 6 1015.0 1014.7 0.0
22/01:00am 19.4 18.7 11.9 62 4.2 SE 7 9 4 5 1015.0 - 0.0
22/12:30am 18.8 18.9 14.5 76 2.5 ESE 7 9 4 5 1015.1 - 0.0
22/12:20am 18.7 18.9 14.6 77 2.4 ESE 7 9 4 5 1015.2 - 0.0
22/12:07am 19.0 19.3 14.9 77 2.4 ESE 7 9 4 5 1015.2 - 0.0
22/12:00am 19.3 19.6 15.0 76 2.5 ESE 7 9 4 5 1015.2 - 0.0
 
Date/Time
CST
Temp
°C
App
Temp
°C
Dew
Point
Rel
Hum
%
Delta-T
°C
Wind Press
QNH
hPa
Press
MSL
hPa
Rain
since 9 am
mm
Dir
 
Spd
km/h
Gust
km/h
Spd
kts
Gust
kts
21/11:30pm 20.3 20.6 15.1 72 3.1 E 7 11 4 6 1015.4 - 0.0
21/11:00pm 20.9 20.7 14.8 68 3.6 E 9 11 5 6 1015.4 - 0.0
21/10:30pm 21.6 21.3 14.3 63 4.3 E 9 13 5 7 1015.4 1015.1 0.0
21/10:00pm 22.1 21.7 14.0 60 4.7 ENE 9 13 5 7 1015.4 - 0.0
21/09:30pm 22.3 21.7 13.6 58 5.0 ENE 9 13 5 7 1015.2 - 0.0
21/09:00pm 23.2 22.3 12.5 51 6.1 ENE 9 15 5 8 1015.0 - 0.0
21/08:30pm 24.1 22.6 11.8 46 7.0 ENE 11 19 6 10 1014.6 - 0.0
21/08:00pm 24.7 22.5 9.4 38 8.4 NE 11 17 6 9 1014.1 - 0.0
21/07:30pm 25.0 22.5 8.1 34 9.0 NE 11 17 6 9 1013.6 1013.2 0.0
21/07:00pm 25.8 23.1 7.4 31 9.8 NE 11 20 6 11 1013.1 - 0.0
21/06:30pm 27.0 24.2 6.9 28 10.6 NE 11 24 6 13 1012.8 - 0.0
21/06:00pm 28.0 24.9 7.3 27 11.1 NE 13 26 7 14 1012.6 - 0.0
21/05:30pm 28.8 25.3 7.4 26 11.5 NE 15 26 8 14 1012.5 - 0.0
21/05:00pm 29.5 26.5 9.1 28 11.4 NE 15 26 8 14 1012.3 - 0.0
21/04:30pm 29.4 25.8 8.5 27 11.5 NE 17 24 9 13 1012.3 1011.9 0.0
21/04:00pm 29.7 26.7 9.3 28 11.4 NE 15 22 8 12 1012.5 - 0.0
21/03:30pm 29.5 27.9 12.9 36 9.8 NNE 13 20 7 11 1012.9 - 0.0
21/03:00pm 28.6 26.7 14.1 41 8.7 N 17 24 9 13 1013.2 - 0.0
21/02:30pm 28.5 26.0 11.1 34 10.0 N 15 26 8 14 1013.7 - 0.0
21/02:00pm 29.2 26.7 8.3 27 11.5 NE 11 19 6 10 1014.3 - 0.0
21/01:30pm 29.6 26.4 6.9 24 12.2 ENE 13 20 7 11 1014.8 1014.5 0.0
21/01:00pm 29.1 25.4 6.5 24 12.0 E 15 22 8 12 1015.3 - 0.0
21/12:30pm 28.7 25.3 6.1 24 11.9 E 13 20 7 11 1015.6 - 0.0
21/12:00pm 28.2 24.9 6.3 25 11.6 E 13 24 7 13 1016.0 - 0.0
21/11:30am 27.7 24.7 7.5 28 10.8 E 13 19 7 10 1016.5 - 0.0
21/11:00am 26.9 23.3 5.2 25 11.1 ESE 13 20 7 11 1017.0 - 0.0
21/10:30am 26.3 23.1 5.3 26 10.7 ESE 11 19 6 10 1017.2 1016.9 0.0
21/10:00am 25.6 22.9 5.8 28 10.2 ESE 9 17 5 9 1017.2 - 0.0
21/09:30am 24.9 23.8 10.0 39 8.2 SE 6 9 3 5 1017.2 - 0.0
21/09:00am 23.3 22.2 10.0 43 7.3 SSE 6 7 3 4 1017.1 - 0.0
21/08:30am 20.9 19.6 10.1 50 5.8 SSE 7 9 4 5 1016.8 - 0.0
21/08:00am 18.3 17.1 10.2 59 4.3 S 7 9 4 5 1016.4 - 0.0
21/07:30am 17.7 15.9 8.0 53 4.9 SSW 7 9 4 5 1016.1 1015.8 0.0
21/07:00am 18.1 16.1 6.9 48 5.6 SSW 7 11 4 6 1015.7 - 0.0
21/06:30am 18.2 16.2 7.3 49 5.5 SW 7 9 4 5 1015.4 - 0.0
21/06:00am 17.7 16.2 8.6 55 4.7 S 6 7 3 4 1015.1 - 0.0
21/05:30am 17.1 15.5 8.8 58 4.3 S 7 7 4 4 1015.0 - 0.0
21/05:00am 17.0 15.8 9.4 61 4.0 S 6 7 3 4 1014.8 - 0.0
21/04:30am 17.0 15.3 7.6 54 4.7 S 6 7 3 4 1014.7 1014.3 0.0
21/04:00am 16.9 15.8 8.3 57 4.4 SSE 4 6 2 3 1014.8 - 0.0
21/03:30am 17.6 16.4 9.5 59 4.3 SSE 6 7 3 4 1014.9 - 0.0
21/03:00am 17.8 16.4 8.9 56 4.6 SSE 6 7 3 4 1014.9 - 0.0
21/02:30am 18.6 17.1 9.1 54 5.0 SE 7 7 4 4 1015.0 - 0.0
21/02:00am 19.3 17.7 8.6 50 5.6 ESE 7 9 4 5 1015.0 - 0.0
21/01:30am 18.9 17.2 9.9 56 4.8 ESE 9 11 5 6 1015.1 1014.8 0.0
21/01:00am 19.0 17.8 10.3 57 4.7 E 7 9 4 5 1015.2 - 0.0
21/12:30am 19.3 18.3 11.1 59 4.5 ESE 7 11 4 6 1015.2 - 0.0
21/12:00am 20.0 18.8 11.5 58 4.7 E 9 11 5 6 1015.3 - 0.0
 
Date/Time
CST
Temp
°C
App
Temp
°C
Dew
Point
Rel
Hum
%
Delta-T
°C
Wind Press
QNH
hPa
Press
MSL
hPa
Rain
since 9 am
mm
Dir
 
Spd
km/h
Gust
km/h
Spd
kts
Gust
kts
20/11:30pm 20.6 19.5 12.1 58 4.8 E 9 11 5 6 1015.3 - 0.0
20/11:00pm 20.2 19.4 12.9 63 4.1 E 9 11 5 6 1015.5 - 0.0
20/10:30pm 20.9 20.4 12.6 59 4.7 E 7 9 4 5 1015.4 1015.1 0.0
20/10:00pm 20.8 20.4 13.0 61 4.4 ENE 7 9 4 5 1015.2 - 0.0
20/09:30pm 21.6 21.1 12.7 57 5.1 E 7 9 4 5 1015.0 - 0.0
20/09:00pm 22.1 21.5 12.4 54 5.5 E 7 11 4 6 1014.7 - 0.0
20/08:30pm 22.8 22.2 12.4 52 5.9 ENE 7 11 4 6 1014.5 - 0.0
20/08:00pm 23.9 22.7 11.6 46 6.9 ENE 9 13 5 7 1014.2 - 0.0
20/07:30pm 24.3 22.4 10.6 42 7.6 ENE 11 17 6 9 1013.8 1013.4 0.0
20/07:00pm 25.0 22.9 9.7 38 8.4 NE 11 17 6 9 1013.4 - 0.0

Other Formats:

Comma delimited format used in spreadsheet applications
http://www.bom.gov.au/fwo/IDD60801/IDD60801.95101.axf

JavaScript Object Notation format (JSON) in row-major order
http://www.bom.gov.au/fwo/IDD60801/IDD60801.95101.json